»·PEaware :: N919EP KSNA-KSNA

N919EP :: KSNA-KSNA

FLIGHT INFORMATION

Flight Status: Arrived
Operator: Privately registered:
United States
More flights under this callsign
Pilot: Michael S. (28019)
Aircraft: CESSNA 172 SKYHAWK
(C172)
More flights by this aircraft type
Origin: KSNA John Wayne-Orange Co
United States
Destination: KSNA John Wayne-Orange Co
United States
More flights between these airports :: More routes between these airports
Route: SLI
File this flight plan on PilotEdge
Remarks: I-1 Rating
Altitude:
(Current/Filed)
3,000ft
Speed:
(Current/Filed)
109kts
Departed: 14-Feb-20 12:31 PM
Arrived: 14-Feb-20 12:55 PM
Distance/Time
Traveled:
0nm/0:23
Distance/Time
To Go:
Arrived

Flight Plot

Page will automatically refresh every two minutes.


Map Options




Map Legend


Flown Route
Filed Route
Departure Airport
Arrival Airport
Navaid (VOR, NDB)
Fix

Horizontal Profiles

Position Reports

Time Latitude Longitude Heading Altitude Ground
Speed
14-Feb-20 12:09 33.676080 -117.870909 219 60ft 0kts
14-Feb-20 12:10 33.676080 -117.870909 219 60ft 0kts
14-Feb-20 12:11 33.676080 -117.870909 219 60ft 0kts
14-Feb-20 12:12 33.676080 -117.870909 219 60ft 0kts
14-Feb-20 12:13 33.676080 -117.870909 219 60ft 0kts
14-Feb-20 12:14 33.676080 -117.870909 219 60ft 0kts
14-Feb-20 12:15 33.676080 -117.870909 219 60ft 0kts
14-Feb-20 12:16 33.676080 -117.870909 219 60ft 0kts
14-Feb-20 12:17 33.676080 -117.870909 219 60ft 0kts
14-Feb-20 12:18 33.676080 -117.870909 219 60ft 0kts
14-Feb-20 12:19 33.676080 -117.870909 219 60ft 0kts
14-Feb-20 12:20 33.676080 -117.870909 219 60ft 0kts
14-Feb-20 12:21 33.676080 -117.870909 219 60ft 0kts
14-Feb-20 12:22 33.676080 -117.870909 219 60ft 0kts
14-Feb-20 12:23 33.676080 -117.870909 219 60ft 0kts
14-Feb-20 12:24 33.676080 -117.870909 219 60ft 0kts
14-Feb-20 12:25 33.676080 -117.870909 219 60ft 0kts
14-Feb-20 12:26 33.675897 -117.870781 115 60ft 3kts
14-Feb-20 12:27 33.678503 -117.868536 27 60ft 22kts
14-Feb-20 12:28 33.681260 -117.866814 74 60ft 5kts
14-Feb-20 12:29 33.681258 -117.866546 111 60ft 0kts
14-Feb-20 12:30 33.675643 -117.868906 210 158ft 70kts
14-Feb-20 12:31 33.663274 -117.886775 244 981ft 73kts
14-Feb-20 12:32 33.653481 -117.908375 255 1770ft 75kts
14-Feb-20 12:33 33.667974 -117.922104 341 2529ft 75kts
14-Feb-20 12:34 33.689454 -117.930187 341 3017ft 103kts
14-Feb-20 12:35 33.717169 -117.930723 26 3006ft 106kts
14-Feb-20 12:36 33.744914 -117.913007 26 3009ft 117kts
14-Feb-20 12:37 33.772993 -117.895114 26 3009ft 113kts
14-Feb-20 12:38 33.800931 -117.877424 26 3009ft 113kts
14-Feb-20 12:39 33.828929 -117.859798 26 3009ft 113kts
14-Feb-20 12:40 33.856887 -117.842267 26 3009ft 113kts
14-Feb-20 12:41 33.882913 -117.821880 66 2999ft 114kts
14-Feb-20 12:42 33.892778 -117.785247 71 2977ft 115kts
14-Feb-20 12:43 33.902410 -117.748430 71 2953ft 115kts
14-Feb-20 12:44 33.892363 -117.721535 196 2929ft 115kts
14-Feb-20 12:45 33.868312 -117.745489 208 2946ft 114kts
14-Feb-20 12:46 33.840674 -117.763910 208 2858ft 105kts
14-Feb-20 12:47 33.817309 -117.778860 208 2771ft 102kts
14-Feb-20 12:48 33.792656 -117.794608 208 2315ft 90kts
14-Feb-20 12:49 33.770463 -117.808688 208 2026ft 98kts
14-Feb-20 12:50 33.747086 -117.823565 207 1533ft 92kts
14-Feb-20 12:51 33.723930 -117.838266 207 1027ft 95kts
14-Feb-20 12:52 33.700680 -117.853015 207 516ft 94kts
14-Feb-20 12:53 33.677918 -117.867448 207 60ft 74kts
14-Feb-20 12:54 33.674082 -117.870139 258 60ft 14kts
14-Feb-20 12:55 33.675043 -117.871423 31 60ft 1kts
14-Feb-20 12:56 33.675330 -117.871213 24 60ft 0kts
14-Feb-20 12:57 33.675330 -117.871213 24 60ft 0kts
14-Feb-20 12:58 33.675330 -117.871213 24 60ft 0kts
14-Feb-20 12:59 33.675330 -117.871213 24 60ft 0kts
14-Feb-20 13:00 33.675330 -117.871213 24 60ft 0kts
14-Feb-20 13:01 33.675330 -117.871213 24 60ft 0kts
14-Feb-20 13:02 33.675330 -117.871213 24 60ft 0kts
14-Feb-20 13:03 33.675330 -117.871213 24 60ft 0kts
14-Feb-20 13:04 33.675330 -117.871213 24 60ft 0kts
14-Feb-20 13:05 33.675330 -117.871213 24 60ft 0kts
14-Feb-20 13:06 33.675330 -117.871213 24 60ft 0kts
14-Feb-20 13:07 33.675330 -117.871213 24 60ft 0kts
14-Feb-20 13:08 33.675330 -117.871213 24 60ft 0kts

Navigation Log

Ident Type
Flight plan parsing failed, navigation log unavailable